createdAt,value
2017-05-07T00:00:48.993Z,0
2017-05-07T00:01:59.254Z,0
2017-05-07T00:03:09.533Z,0
2017-05-07T00:04:19.490Z,0
2017-05-07T00:05:29.757Z,0
2017-05-07T00:06:39.722Z,0
2017-05-07T00:07:49.988Z,0
2017-05-07T00:09:00.269Z,0
2017-05-07T00:10:09.907Z,0
2017-05-07T00:11:20.173Z,0
2017-05-07T00:12:30.444Z,0
2017-05-07T00:13:40.770Z,0
2017-05-07T00:14:51.038Z,0
2017-05-07T00:16:00.995Z,0
2017-05-07T00:17:11.265Z,0
2017-05-07T00:18:21.529Z,0
2017-05-07T00:19:31.796Z,0
2017-05-07T00:20:42.057Z,0
2017-05-07T00:21:52.004Z,0
2017-05-07T00:23:02.270Z,0
2017-05-07T00:24:12.226Z,0
2017-05-07T00:25:22.492Z,0
2017-05-07T00:26:32.758Z,0
2017-05-07T00:27:43.027Z,0
2017-05-07T00:28:53.297Z,0
2017-05-07T00:30:03.559Z,0
2017-05-07T00:31:13.194Z,0
2017-05-07T00:32:23.462Z,0
2017-05-07T00:33:33.742Z,0
2017-05-07T00:34:44.012Z,0
2017-05-07T00:35:54.276Z,0
2017-05-07T00:37:04.547Z,0
2017-05-07T00:38:14.184Z,0
2017-05-07T00:39:24.450Z,0
2017-05-07T00:40:34.720Z,0
2017-05-07T00:41:45.031Z,0
2017-05-07T00:42:54.988Z,0
2017-05-07T00:44:05.258Z,0
2017-05-07T00:45:14.931Z,0
2017-05-07T00:46:25.203Z,0
2017-05-07T00:47:35.477Z,0
2017-05-07T00:48:45.440Z,0
2017-05-07T00:49:55.708Z,0
2017-05-07T00:51:05.979Z,0
2017-05-07T00:52:16.248Z,0
2017-05-07T00:53:26.514Z,0
2017-05-07T00:54:36.469Z,0
2017-05-07T00:55:46.739Z,0
2017-05-07T00:56:57.048Z,0
2017-05-07T00:58:07.317Z,0
2017-05-07T00:59:16.961Z,0
2017-05-07T01:00:27.225Z,0
2017-05-07T01:01:37.502Z,0
2017-05-07T01:02:47.775Z,0
2017-05-07T01:03:58.039Z,0
2017-05-07T01:05:07.985Z,0
2017-05-07T01:06:17.622Z,0
2017-05-07T01:07:27.891Z,0
2017-05-07T01:08:37.523Z,0
2017-05-07T01:09:47.477Z,0
2017-05-07T01:10:57.428Z,0
2017-05-07T01:12:07.697Z,0
2017-05-07T01:13:17.649Z,0
2017-05-07T01:14:27.910Z,0
2017-05-07T01:15:37.858Z,0
2017-05-07T01:16:47.815Z,0
2017-05-07T01:17:58.083Z,0
2017-05-07T01:19:08.036Z,0
2017-05-07T01:20:17.991Z,0
2017-05-07T01:21:27.315Z,0
2017-05-07T01:22:37.265Z,0
2017-05-07T01:23:47.532Z,0
2017-05-07T01:24:57.799Z,0
2017-05-07T01:26:08.057Z,0
2017-05-07T01:27:18.016Z,0
2017-05-07T01:28:28.294Z,0
2017-05-07T01:29:38.562Z,0
2017-05-07T01:30:48.833Z,0
2017-05-07T01:31:59.095Z,0
2017-05-07T01:33:09.084Z,0
2017-05-07T01:34:19.038Z,0
2017-05-07T01:35:28.370Z,0
2017-05-07T01:36:38.636Z,0
2017-05-07T01:37:48.898Z,0
2017-05-07T01:38:59.166Z,0
2017-05-07T01:40:09.432Z,0
2017-05-07T01:41:19.702Z,0
2017-05-07T01:42:29.650Z,0
2017-05-07T01:43:39.916Z,0
2017-05-07T01:44:50.186Z,0
2017-05-07T01:46:00.137Z,0
2017-05-07T01:47:10.400Z,0
2017-05-07T01:48:20.677Z,0
2017-05-07T01:49:30.314Z,0
2017-05-07T01:50:40.583Z,0
2017-05-07T01:51:50.541Z,0
2017-05-07T01:53:00.803Z,0
2017-05-07T01:54:10.760Z,0
2017-05-07T01:55:20.401Z,0
2017-05-07T01:56:30.666Z,0
2017-05-07T01:57:40.931Z,0
2017-05-07T01:58:51.234Z,0
2017-05-07T02:00:01.499Z,0
2017-05-07T02:01:11.764Z,0
2017-05-07T02:02:21.729Z,0
2017-05-07T02:03:32.033Z,0
2017-05-07T02:04:42.301Z,0
2017-05-07T02:05:52.561Z,0
2017-05-07T02:07:02.829Z,0
2017-05-07T02:08:13.097Z,0
2017-05-07T02:09:23.620Z,0
2017-05-07T02:10:33.572Z,0
2017-05-07T02:11:43.831Z,0
2017-05-07T02:12:54.108Z,0
2017-05-07T02:14:04.378Z,0
2017-05-07T02:15:16.333Z,0
2017-05-07T02:16:26.598Z,0
2017-05-07T02:17:36.862Z,0
2017-05-07T02:18:47.163Z,0
2017-05-07T02:19:57.431Z,0
2017-05-07T02:21:07.898Z,0
2017-05-07T02:22:17.853Z,4
2017-05-07T02:23:28.119Z,4
2017-05-07T02:24:38.378Z,0
2017-05-07T02:25:48.642Z,0
2017-05-07T02:27:01.227Z,4
2017-05-07T02:28:11.178Z,4
2017-05-07T02:29:20.501Z,4
2017-05-07T02:30:30.456Z,0
2017-05-07T02:31:40.410Z,4
2017-05-07T02:32:50.361Z,4
2017-05-07T02:34:00.631Z,8
2017-05-07T02:35:10.894Z,4
2017-05-07T02:36:21.156Z,4
2017-05-07T02:37:31.114Z,4
2017-05-07T02:38:41.379Z,8
2017-05-07T02:39:51.650Z,8
2017-05-07T02:41:01.928Z,8
2017-05-07T02:42:11.879Z,8
2017-05-07T02:43:21.833Z,8
2017-05-07T02:44:32.097Z,12
2017-05-07T02:45:42.361Z,12
2017-05-07T02:46:52.627Z,12
2017-05-07T02:48:02.892Z,16
2017-05-07T02:49:12.531Z,12
2017-05-07T02:50:22.480Z,16
2017-05-07T02:51:32.433Z,16
2017-05-07T02:52:42.705Z,16
2017-05-07T02:53:52.969Z,16
2017-05-07T02:55:03.248Z,20
2017-05-07T02:56:13.194Z,20
2017-05-07T02:57:23.460Z,20
2017-05-07T02:58:33.418Z,20
2017-05-07T02:59:43.682Z,24
2017-05-07T03:00:53.949Z,24
2017-05-07T03:02:03.902Z,28
2017-05-07T03:03:13.851Z,24
2017-05-07T03:04:24.120Z,28
2017-05-07T03:05:34.069Z,32
2017-05-07T03:06:44.329Z,32
2017-05-07T03:07:54.641Z,36
2017-05-07T03:09:04.911Z,36
2017-05-07T03:10:15.179Z,40
2017-05-07T03:11:25.437Z,44
2017-05-07T03:12:35.391Z,48
2017-05-07T03:13:45.667Z,52
2017-05-07T03:14:55.929Z,56
2017-05-07T03:16:06.190Z,64
2017-05-07T03:17:15.853Z,68
2017-05-07T03:18:26.126Z,76
2017-05-07T03:19:36.079Z,84
2017-05-07T03:20:46.342Z,88
2017-05-07T03:21:56.617Z,96
2017-05-07T03:23:06.889Z,100
2017-05-07T03:24:16.838Z,100
2017-05-07T03:25:27.109Z,104
2017-05-07T03:26:37.066Z,112
2017-05-07T03:27:47.056Z,116
2017-05-07T03:28:57.356Z,124
2017-05-07T03:30:07.624Z,132
2017-05-07T03:31:17.579Z,148
2017-05-07T03:32:27.845Z,160
2017-05-07T03:33:37.819Z,168
2017-05-07T03:34:48.081Z,180
2017-05-07T03:35:58.346Z,188
2017-05-07T03:37:08.620Z,192
2017-05-07T03:38:18.880Z,204
2017-05-07T03:39:29.145Z,212
2017-05-07T03:40:39.086Z,224
2017-05-07T03:41:49.347Z,228
2017-05-07T03:42:59.616Z,232
2017-05-07T03:44:09.251Z,236
2017-05-07T03:45:19.512Z,236
2017-05-07T03:46:29.774Z,244
2017-05-07T03:47:40.040Z,252
2017-05-07T03:48:50.302Z,252
2017-05-07T03:50:00.568Z,256
2017-05-07T03:51:10.518Z,252
2017-05-07T03:52:20.469Z,244
2017-05-07T03:53:30.773Z,228
2017-05-07T03:54:41.037Z,236
2017-05-07T03:55:51.310Z,260
2017-05-07T03:57:01.572Z,292
2017-05-07T03:58:11.835Z,312
2017-05-07T03:59:21.788Z,320
2017-05-07T04:00:32.056Z,312
2017-05-07T04:01:42.315Z,316
2017-05-07T04:02:52.578Z,308
2017-05-07T04:04:02.875Z,304
2017-05-07T04:05:12.523Z,324
2017-05-07T04:06:22.783Z,356
2017-05-07T04:07:33.049Z,380
2017-05-07T04:08:43.313Z,388
2017-05-07T04:09:53.568Z,388
2017-05-07T04:11:03.833Z,376
2017-05-07T04:12:14.091Z,368
2017-05-07T04:13:24.353Z,356
2017-05-07T04:14:34.615Z,360
2017-05-07T04:15:44.886Z,364
2017-05-07T04:16:55.186Z,372
2017-05-07T04:18:05.451Z,384
2017-05-07T04:19:15.090Z,392
2017-05-07T04:20:25.344Z,400
2017-05-07T04:21:35.607Z,420
2017-05-07T04:22:45.870Z,440
2017-05-07T04:23:56.133Z,452
2017-05-07T04:25:06.399Z,456
2017-05-07T04:26:16.342Z,436
2017-05-07T04:27:26.609Z,444
2017-05-07T04:28:36.557Z,460
2017-05-07T04:29:46.824Z,488
2017-05-07T04:30:57.090Z,512
2017-05-07T04:32:07.042Z,548
2017-05-07T04:33:17.306Z,588
2017-05-07T04:34:27.571Z,624
2017-05-07T04:35:37.833Z,656
2017-05-07T04:36:48.099Z,688
2017-05-07T04:37:58.374Z,720
2017-05-07T04:39:08.637Z,756
2017-05-07T04:40:18.895Z,804
2017-05-07T04:41:29.151Z,844
2017-05-07T04:42:39.103Z,868
2017-05-07T04:43:49.373Z,856
2017-05-07T04:44:59.645Z,844
2017-05-07T04:46:09.908Z,860
2017-05-07T04:47:19.544Z,904
2017-05-07T04:48:29.815Z,952
2017-05-07T04:49:40.074Z,972
2017-05-07T04:50:50.336Z,988
2017-05-07T04:52:00.306Z,1032
2017-05-07T04:53:10.577Z,1120
2017-05-07T04:54:20.849Z,1260
2017-05-07T04:55:30.485Z,1392
2017-05-07T04:56:40.752Z,1500
2017-05-07T04:57:51.019Z,1592
2017-05-07T04:59:01.286Z,1652
2017-05-07T05:00:11.550Z,1752
2017-05-07T05:01:21.810Z,1840
2017-05-07T05:02:32.069Z,1820
2017-05-07T05:03:42.333Z,1756
2017-05-07T05:04:52.590Z,1668
2017-05-07T05:06:02.853Z,1596
2017-05-07T05:07:12.802Z,1552
2017-05-07T05:08:23.067Z,1524
2017-05-07T05:09:33.326Z,1512
2017-05-07T05:10:43.589Z,1520
2017-05-07T05:11:53.850Z,1556
2017-05-07T05:13:04.113Z,1624
2017-05-07T05:14:14.377Z,1696
2017-05-07T05:15:24.632Z,1752
2017-05-07T05:16:34.587Z,1816
2017-05-07T05:17:44.853Z,1892
2017-05-07T05:18:55.108Z,1968
2017-05-07T05:20:05.371Z,2040
2017-05-07T05:21:15.636Z,2120
2017-05-07T05:22:25.902Z,2220
2017-05-07T05:23:36.162Z,2336
2017-05-07T05:24:46.424Z,2444
2017-05-07T05:25:56.376Z,2540
2017-05-07T05:27:06.636Z,2632
2017-05-07T05:28:16.595Z,2732
2017-05-07T05:29:26.863Z,2836
2017-05-07T05:30:37.126Z,2960
2017-05-07T05:31:46.766Z,3068
2017-05-07T05:32:57.027Z,3176
2017-05-07T05:34:07.289Z,3260
2017-05-07T05:35:17.555Z,3316
2017-05-07T05:36:27.814Z,3324
2017-05-07T05:37:38.080Z,3296
2017-05-07T05:38:48.346Z,3264
2017-05-07T05:39:58.610Z,3244
2017-05-07T05:41:08.872Z,3264
2017-05-07T05:42:18.818Z,3332
2017-05-07T05:43:28.760Z,3472
2017-05-07T05:44:38.707Z,3572
2017-05-07T05:45:48.966Z,3600
2017-05-07T05:46:59.225Z,3680
2017-05-07T05:48:09.484Z,3828
2017-05-07T05:49:19.765Z,3920
2017-05-07T05:50:30.035Z,3880
2017-05-07T05:51:40.294Z,3744
2017-05-07T05:52:50.561Z,3584
2017-05-07T05:54:00.829Z,3460
2017-05-07T05:55:11.107Z,3464
2017-05-07T05:56:21.367Z,3568
2017-05-07T05:57:31.628Z,3736
2017-05-07T05:58:41.579Z,3892
2017-05-07T05:59:51.838Z,4024
2017-05-07T06:01:02.105Z,4156
2017-05-07T06:02:12.057Z,4212
2017-05-07T06:03:22.321Z,4276
2017-05-07T06:04:32.595Z,4424
2017-05-07T06:05:42.857Z,4664
2017-05-07T06:06:53.118Z,4880
2017-05-07T06:08:03.382Z,5024
2017-05-07T06:09:13.337Z,5020
2017-05-07T06:10:23.604Z,5044
2017-05-07T06:11:33.864Z,5168
2017-05-07T06:12:44.158Z,5208
2017-05-07T06:13:54.418Z,5264
2017-05-07T06:15:04.687Z,5268
2017-05-07T06:16:14.319Z,5296
2017-05-07T06:17:24.583Z,5380
2017-05-07T06:18:34.848Z,5396
2017-05-07T06:19:44.821Z,5340
2017-05-07T06:20:55.082Z,5344
2017-05-07T06:22:05.031Z,5372
2017-05-07T06:23:14.353Z,5296
2017-05-07T06:24:24.617Z,5192
2017-05-07T06:25:34.875Z,5116
2017-05-07T06:26:45.138Z,5172
2017-05-07T06:27:55.398Z,5328
2017-05-07T06:29:05.654Z,5560
2017-05-07T06:30:15.281Z,5608
2017-05-07T06:31:25.547Z,5656
2017-05-07T06:32:35.810Z,5812
2017-05-07T06:33:46.067Z,6196
2017-05-07T06:34:56.332Z,6576
2017-05-07T06:36:06.610Z,6976
2017-05-07T06:37:16.243Z,7360
2017-05-07T06:38:26.512Z,7884
2017-05-07T06:39:36.460Z,8112
2017-05-07T06:40:46.723Z,8300
2017-05-07T06:41:56.677Z,8308
2017-05-07T06:43:06.953Z,8208
2017-05-07T06:44:16.901Z,8160
2017-05-07T06:45:27.159Z,8220
2017-05-07T06:46:37.426Z,8240
2017-05-07T06:47:47.374Z,8268
2017-05-07T06:48:57.637Z,8260
2017-05-07T06:50:07.911Z,8172
2017-05-07T06:51:17.864Z,7896
2017-05-07T06:52:28.123Z,7896
2017-05-07T06:53:38.076Z,7928
2017-05-07T06:54:48.345Z,7920
2017-05-07T06:55:58.607Z,7940
2017-05-07T06:57:08.245Z,7976
2017-05-07T06:58:18.197Z,8004
2017-05-07T06:59:28.467Z,7904
2017-05-07T07:00:38.417Z,7676
2017-05-07T07:01:48.368Z,7388
2017-05-07T07:02:58.629Z,7144
2017-05-07T07:04:08.604Z,6928
2017-05-07T07:05:18.550Z,6756
2017-05-07T07:06:28.811Z,6668
2017-05-07T07:07:39.076Z,6668
2017-05-07T07:08:49.341Z,6696
2017-05-07T07:09:59.604Z,6728
2017-05-07T07:11:09.557Z,6708
2017-05-07T07:12:19.510Z,6676
2017-05-07T07:13:29.776Z,6636
2017-05-07T07:14:40.040Z,6612
2017-05-07T07:15:50.299Z,6676
2017-05-07T07:17:00.243Z,6716
2017-05-07T07:18:10.194Z,6732
2017-05-07T07:19:20.457Z,6700
2017-05-07T07:20:30.723Z,6600
2017-05-07T07:21:40.679Z,6484
2017-05-07T07:22:50.945Z,6348
2017-05-07T07:24:01.204Z,6116
2017-05-07T07:25:11.481Z,6128
2017-05-07T07:26:21.754Z,6268
2017-05-07T07:27:31.702Z,6348
2017-05-07T07:28:41.964Z,6568
2017-05-07T07:29:52.224Z,6616
2017-05-07T07:31:02.481Z,6356
2017-05-07T07:32:12.755Z,6136
2017-05-07T07:33:22.386Z,5972
2017-05-07T07:34:32.342Z,5912
2017-05-07T07:35:42.603Z,5876
2017-05-07T07:36:52.859Z,5872
2017-05-07T07:38:03.120Z,5824
2017-05-07T07:39:13.393Z,5836
2017-05-07T07:40:23.665Z,5808
2017-05-07T07:41:33.931Z,5688
2017-05-07T07:42:44.197Z,5600
2017-05-07T07:43:54.465Z,5528
2017-05-07T07:45:04.727Z,5752
2017-05-07T07:46:14.991Z,5952
2017-05-07T07:47:24.941Z,5568
2017-05-07T07:48:35.203Z,5576
2017-05-07T07:49:45.463Z,6036
2017-05-07T07:50:55.727Z,5764
2017-05-07T07:52:05.988Z,5536
2017-05-07T07:53:15.628Z,5580
2017-05-07T07:54:25.579Z,5280
2017-05-07T07:55:35.843Z,5092
2017-05-07T07:56:45.786Z,4848
2017-05-07T07:57:56.045Z,4552
2017-05-07T07:59:06.317Z,4284
2017-05-07T08:00:16.272Z,4256
2017-05-07T08:01:26.219Z,4220
2017-05-07T08:02:36.485Z,4232
2017-05-07T08:03:46.750Z,4136
2017-05-07T08:04:57.022Z,4044
2017-05-07T08:06:07.286Z,3956
2017-05-07T08:07:17.244Z,3836
2017-05-07T08:08:27.512Z,3784
2017-05-07T08:09:37.773Z,4156
2017-05-07T08:10:48.041Z,4172
2017-05-07T08:11:58.308Z,3972
2017-05-07T08:13:08.572Z,3852
2017-05-07T08:14:18.521Z,3824
2017-05-07T08:15:28.779Z,3808
2017-05-07T08:16:39.035Z,3804
2017-05-07T08:17:49.299Z,3804
2017-05-07T08:18:59.246Z,3804
2017-05-07T08:20:09.521Z,3812
2017-05-07T08:21:19.782Z,3800
2017-05-07T08:22:30.050Z,3792
2017-05-07T08:23:40.315Z,3800
2017-05-07T08:24:50.577Z,3824
2017-05-07T08:26:00.842Z,3836
2017-05-07T08:27:11.102Z,3820
2017-05-07T08:28:21.363Z,3824
2017-05-07T08:29:31.622Z,3832
2017-05-07T08:30:41.572Z,3832
2017-05-07T08:31:51.519Z,3840
2017-05-07T08:33:01.784Z,3840
2017-05-07T08:34:11.739Z,3844
2017-05-07T08:35:21.376Z,3852
2017-05-07T08:36:31.643Z,3864
2017-05-07T08:37:41.904Z,3876
2017-05-07T08:38:51.859Z,3892
2017-05-07T08:40:02.115Z,3912
2017-05-07T08:41:12.065Z,3928
2017-05-07T08:42:22.014Z,3956
2017-05-07T08:43:32.279Z,3964
2017-05-07T08:44:42.542Z,3960
2017-05-07T08:45:52.809Z,3960
2017-05-07T08:47:03.074Z,3960
2017-05-07T08:48:13.332Z,3964
2017-05-07T08:49:23.288Z,3972
2017-05-07T08:50:33.558Z,3984
2017-05-07T08:51:43.825Z,4008
2017-05-07T08:52:54.094Z,4040
2017-05-07T08:54:04.356Z,4048
2017-05-07T08:55:14.628Z,4056
2017-05-07T08:56:24.891Z,4072
2017-05-07T08:57:35.186Z,4088
2017-05-07T08:58:45.493Z,4104
2017-05-07T08:59:55.758Z,4112
2017-05-07T09:01:06.029Z,4120
2017-05-07T09:02:16.293Z,4132
2017-05-07T09:03:25.932Z,4140
2017-05-07T09:04:36.198Z,4148
2017-05-07T09:05:46.468Z,4152
2017-05-07T09:06:56.733Z,4164
2017-05-07T09:08:06.999Z,4172
2017-05-07T09:09:17.277Z,4188
2017-05-07T09:10:27.544Z,4188
2017-05-07T09:11:37.810Z,4184
2017-05-07T09:12:48.077Z,4184
2017-05-07T09:13:58.034Z,4180
2017-05-07T09:15:07.978Z,4184
2017-05-07T09:16:18.240Z,4180
2017-05-07T09:17:28.507Z,4180
2017-05-07T09:18:38.774Z,4180
2017-05-07T09:19:48.726Z,4184
2017-05-07T09:20:58.673Z,4204
2017-05-07T09:22:08.939Z,4200
2017-05-07T09:23:19.201Z,4208
2017-05-07T09:24:29.456Z,4220
2017-05-07T09:25:39.405Z,4236
2017-05-07T09:26:49.668Z,4248
2017-05-07T09:27:59.930Z,4280
2017-05-07T09:29:09.874Z,4260
2017-05-07T09:30:20.137Z,4268
2017-05-07T09:31:30.397Z,4272
2017-05-07T09:32:40.664Z,4280
2017-05-07T09:33:50.939Z,4284
2017-05-07T09:35:01.213Z,4284
2017-05-07T09:36:11.476Z,4288
2017-05-07T09:37:21.741Z,4288
2017-05-07T09:38:31.696Z,4300
2017-05-07T09:39:41.957Z,4312
2017-05-07T09:40:52.219Z,4312
2017-05-07T09:42:02.488Z,4316
2017-05-07T09:43:12.757Z,4332
2017-05-07T09:44:23.026Z,4328
2017-05-07T09:45:33.316Z,4336
2017-05-07T09:46:43.590Z,4344
2017-05-07T09:47:53.849Z,4356
2017-05-07T09:49:04.117Z,4364
2017-05-07T09:50:14.378Z,4372
2017-05-07T09:51:24.645Z,4376
2017-05-07T09:52:34.597Z,4380
2017-05-07T09:53:44.866Z,4388
2017-05-07T09:54:55.122Z,4392
2017-05-07T09:56:05.382Z,4404
2017-05-07T09:57:15.336Z,4412
2017-05-07T09:58:25.601Z,4420
2017-05-07T09:59:35.869Z,4432
2017-05-07T10:00:45.820Z,4444
2017-05-07T10:01:55.769Z,4456
2017-05-07T10:03:06.033Z,4468
2017-05-07T10:04:16.301Z,4476
2017-05-07T10:05:25.938Z,4488
2017-05-07T10:06:36.248Z,4496
2017-05-07T10:07:46.510Z,4512
2017-05-07T10:08:56.766Z,4532
2017-05-07T10:10:07.025Z,4544
2017-05-07T10:11:17.295Z,4560
2017-05-07T10:12:27.564Z,4580
2017-05-07T10:13:37.826Z,4572
2017-05-07T10:14:48.132Z,4592
2017-05-07T10:15:58.398Z,4596
2017-05-07T10:17:08.663Z,4604
2017-05-07T10:18:18.928Z,4608
2017-05-07T10:19:29.193Z,4612
2017-05-07T10:20:39.458Z,4640
2017-05-07T10:21:49.407Z,4648
2017-05-07T10:22:59.357Z,4668
2017-05-07T10:24:09.615Z,4672
2017-05-07T10:25:19.881Z,4676
2017-05-07T10:26:30.150Z,4704
2017-05-07T10:27:40.419Z,4720
2017-05-07T10:28:50.365Z,4740
2017-05-07T10:30:00.623Z,4752
2017-05-07T10:31:10.254Z,4772
2017-05-07T10:32:20.202Z,4784
2017-05-07T10:33:30.155Z,4804
2017-05-07T10:34:40.419Z,4828
2017-05-07T10:35:50.678Z,4840
2017-05-07T10:37:00.947Z,4856
2017-05-07T10:38:11.209Z,4876
2017-05-07T10:39:21.470Z,4884
2017-05-07T10:40:31.740Z,4908
2017-05-07T10:41:42.015Z,4924
2017-05-07T10:42:52.281Z,4948
2017-05-07T10:44:02.546Z,4968
2017-05-07T10:45:12.502Z,4988
2017-05-07T10:46:22.793Z,4996
2017-05-07T10:47:33.054Z,5024
2017-05-07T10:48:43.002Z,5036
2017-05-07T10:49:53.262Z,5056
2017-05-07T10:51:03.215Z,5072
2017-05-07T10:52:13.503Z,5080
2017-05-07T10:53:23.767Z,5084
2017-05-07T10:54:33.727Z,5116
2017-05-07T10:55:43.987Z,5132
2017-05-07T10:56:54.253Z,5136
2017-05-07T10:58:04.528Z,5136
2017-05-07T10:59:14.792Z,5148
2017-05-07T11:00:25.066Z,5176
2017-05-07T11:01:35.327Z,5212
2017-05-07T11:02:45.283Z,5232
2017-05-07T11:03:55.545Z,5236
2017-05-07T11:05:05.823Z,5252
2017-05-07T11:06:15.774Z,5276
2017-05-07T11:07:25.723Z,5320
2017-05-07T11:08:35.673Z,5364
2017-05-07T11:09:45.629Z,5392
2017-05-07T11:10:55.893Z,5424
2017-05-07T11:12:05.532Z,5476
2017-05-07T11:13:15.480Z,5512
2017-05-07T11:14:25.740Z,5544
2017-05-07T11:15:36.004Z,5540
2017-05-07T11:16:46.270Z,5560
2017-05-07T11:17:56.222Z,5620
2017-05-07T11:19:06.172Z,5668
2017-05-07T11:20:16.439Z,5696
2017-05-07T11:21:26.706Z,5776
2017-05-07T11:22:36.981Z,6104
2017-05-07T11:23:47.249Z,6896
2017-05-07T11:24:57.513Z,12420
2017-05-07T11:26:07.460Z,56096
2017-05-07T11:27:17.411Z,82560
2017-05-07T11:28:27.681Z,85568
2017-05-07T11:29:37.631Z,86336
2017-05-07T11:30:47.900Z,86528
2017-05-07T11:31:58.164Z,86336
2017-05-07T11:33:08.438Z,83488
2017-05-07T11:34:18.078Z,83264
2017-05-07T11:35:28.352Z,83264
2017-05-07T11:36:38.619Z,77760
2017-05-07T11:37:48.901Z,72352
2017-05-07T11:38:59.180Z,71136
2017-05-07T11:40:09.457Z,71808
2017-05-07T11:41:19.110Z,73728
2017-05-07T11:42:29.386Z,77504
2017-05-07T11:43:39.656Z,75264
2017-05-07T11:44:49.932Z,68864
2017-05-07T11:46:00.213Z,79808
2017-05-07T11:47:09.858Z,85472
2017-05-07T11:48:19.818Z,80704
2017-05-07T11:49:30.108Z,72576
2017-05-07T11:50:40.383Z,74144
2017-05-07T11:51:50.340Z,74784
2017-05-07T11:53:00.618Z,76928
2017-05-07T11:54:10.909Z,75136
2017-05-07T11:55:21.185Z,73248
2017-05-07T11:56:31.149Z,70592
2017-05-07T11:57:41.434Z,67072
2017-05-07T11:58:51.723Z,62240
2017-05-07T12:00:01.694Z,56256
2017-05-07T12:01:11.968Z,57056
2017-05-07T12:02:22.242Z,64640
2017-05-07T12:03:32.547Z,69120
2017-05-07T12:04:42.819Z,66656
2017-05-07T12:05:52.784Z,74752
2017-05-07T12:07:02.442Z,79840
2017-05-07T12:08:12.725Z,80224
2017-05-07T12:09:23.002Z,77568
2017-05-07T12:10:32.968Z,70080
2017-05-07T12:11:43.248Z,72576
2017-05-07T12:12:53.529Z,71328
2017-05-07T12:14:03.493Z,75168
2017-05-07T12:15:13.780Z,77504
2017-05-07T12:16:23.743Z,78240
2017-05-07T12:17:34.021Z,76928
2017-05-07T12:18:44.304Z,76512
2017-05-07T12:19:54.579Z,79200
2017-05-07T12:21:04.859Z,87968
2017-05-07T12:22:14.515Z,84384
2017-05-07T12:23:24.792Z,79456
2017-05-07T12:24:35.087Z,83712
2017-05-07T12:25:45.055Z,85312
2017-05-07T12:26:55.336Z,85920
2017-05-07T12:28:05.614Z,85472
2017-05-07T12:29:14.956Z,84384
2017-05-07T12:30:25.229Z,88832
2017-05-07T12:31:35.508Z,85248
2017-05-07T12:32:45.783Z,85632
2017-05-07T12:33:55.742Z,89184
2017-05-07T12:35:05.703Z,83008
2017-05-07T12:36:15.664Z,83776
2017-05-07T12:37:25.630Z,86624
2017-05-07T12:38:35.912Z,86592
2017-05-07T12:39:46.195Z,85216
2017-05-07T12:40:56.773Z,87072
2017-05-07T12:42:07.049Z,84288
2017-05-07T12:43:17.010Z,87744
2017-05-07T12:44:27.295Z,89120
2017-05-07T12:45:37.570Z,88640
2017-05-07T12:46:47.856Z,88032
2017-05-07T12:47:57.823Z,86272
2017-05-07T12:49:08.104Z,89888
2017-05-07T12:50:18.395Z,90016
2017-05-07T12:51:28.670Z,84032
2017-05-07T12:52:38.635Z,82816
2017-05-07T12:53:48.922Z,80960
2017-05-07T12:54:59.198Z,85792
2017-05-07T12:56:09.171Z,86624
2017-05-07T12:57:19.452Z,87616
2017-05-07T12:58:29.733Z,86464
2017-05-07T12:59:40.013Z,84960
2017-05-07T13:00:50.293Z,85120
2017-05-07T13:02:00.572Z,85984
2017-05-07T13:03:10.863Z,81856
2017-05-07T13:04:20.824Z,82528
2017-05-07T13:05:30.791Z,86880
2017-05-07T13:06:41.071Z,87296
2017-05-07T13:07:51.349Z,88384
2017-05-07T13:09:01.626Z,90592
2017-05-07T13:10:11.918Z,89888
2017-05-07T13:11:22.203Z,87456
2017-05-07T13:12:32.491Z,93152
2017-05-07T13:13:42.767Z,94688
2017-05-07T13:14:52.413Z,94272
2017-05-07T13:16:02.377Z,94400
2017-05-07T13:17:12.664Z,93568
2017-05-07T13:18:22.321Z,92288
2017-05-07T13:19:32.292Z,83520
2017-05-07T13:20:42.573Z,83040
2017-05-07T13:21:52.542Z,87008
2017-05-07T13:23:02.824Z,89056
2017-05-07T13:24:13.107Z,83200
2017-05-07T13:25:23.391Z,83200
2017-05-07T13:26:33.671Z,86816
2017-05-07T13:27:44.246Z,87712
2017-05-07T13:28:54.523Z,82912
2017-05-07T13:30:04.802Z,87776
2017-05-07T13:31:15.109Z,86336
2017-05-07T13:32:25.386Z,86048
2017-05-07T13:33:35.667Z,89440
2017-05-07T13:34:45.950Z,87456
2017-05-07T13:35:56.232Z,85280
2017-05-07T13:37:06.201Z,87872
2017-05-07T13:38:16.480Z,84032
2017-05-07T13:39:26.762Z,87328
2017-05-07T13:40:37.041Z,90784
2017-05-07T13:41:47.315Z,83872
2017-05-07T13:42:57.597Z,86112
2017-05-07T13:44:07.877Z,87104
2017-05-07T13:45:17.842Z,88320
2017-05-07T13:46:28.120Z,86208
2017-05-07T13:47:38.397Z,82624
2017-05-07T13:48:48.673Z,79328
2017-05-07T13:49:58.955Z,82048
2017-05-07T13:51:08.916Z,81248
2017-05-07T13:52:18.881Z,84128
2017-05-07T13:53:29.161Z,82880
2017-05-07T13:54:39.441Z,83872
2017-05-07T13:55:49.717Z,80864
2017-05-07T13:56:59.991Z,82784
2017-05-07T13:58:10.269Z,80992
2017-05-07T13:59:20.550Z,76864
2017-05-07T14:00:30.821Z,77728
2017-05-07T14:01:40.791Z,79968
2017-05-07T14:02:51.072Z,77856
2017-05-07T14:04:01.359Z,77472
2017-05-07T14:05:11.331Z,77184
2017-05-07T14:06:21.615Z,74208
2017-05-07T14:07:31.269Z,69408
2017-05-07T14:08:41.555Z,66688
2017-05-07T14:09:51.836Z,64512
2017-05-07T14:11:02.117Z,63232
2017-05-07T14:12:12.092Z,60448
2017-05-07T14:13:22.370Z,61024
2017-05-07T14:14:32.659Z,68544
2017-05-07T14:15:42.947Z,65152
2017-05-07T14:16:53.229Z,59136
2017-05-07T14:18:03.208Z,54560
2017-05-07T14:19:13.489Z,54496
2017-05-07T14:20:23.768Z,52640
2017-05-07T14:21:34.046Z,55296
2017-05-07T14:22:44.008Z,57280
2017-05-07T14:23:53.974Z,54816
2017-05-07T14:25:04.255Z,54912
2017-05-07T14:26:14.541Z,57856
2017-05-07T14:27:24.814Z,60192
2017-05-07T14:28:35.099Z,64224
2017-05-07T14:29:45.381Z,67168
2017-05-07T14:30:55.349Z,68192
2017-05-07T14:32:05.637Z,71872
2017-05-07T14:33:15.615Z,76704
2017-05-07T14:34:25.886Z,78240
2017-05-07T14:35:35.852Z,75840
2017-05-07T14:36:46.131Z,74240
2017-05-07T14:37:56.409Z,72448
2017-05-07T14:39:06.376Z,72864
2017-05-07T14:40:16.342Z,78624
2017-05-07T14:41:26.318Z,86272
2017-05-07T14:42:36.602Z,88384
2017-05-07T14:43:46.890Z,88608
2017-05-07T14:44:57.166Z,89920
2017-05-07T14:46:07.136Z,86880
2017-05-07T14:47:17.427Z,87296
2017-05-07T14:48:27.730Z,86176
2017-05-07T14:49:37.697Z,86496
2017-05-07T14:50:47.981Z,84352
2017-05-07T14:51:58.250Z,78240
2017-05-07T14:53:08.530Z,77024
2017-05-07T14:54:18.803Z,82272
2017-05-07T14:55:29.085Z,82240
2017-05-07T14:56:39.374Z,82848
2017-05-07T14:57:48.715Z,81984
2017-05-07T14:58:58.681Z,78848
2017-05-07T15:00:08.966Z,66144
2017-05-07T15:01:19.248Z,48768
2017-05-07T15:02:29.557Z,81856
2017-05-07T15:03:39.833Z,10144
2017-05-07T15:04:50.109Z,50944
2017-05-07T15:06:00.074Z,32416
2017-05-07T15:07:10.358Z,72320
2017-05-07T15:08:19.690Z,78528
2017-05-07T15:09:29.650Z,75456
2017-05-07T15:10:39.934Z,74752
2017-05-07T15:11:50.224Z,79424
2017-05-07T15:13:00.499Z,80384
2017-05-07T15:14:09.833Z,79200
2017-05-07T15:15:19.479Z,78336
2017-05-07T15:16:29.759Z,75584
2017-05-07T15:17:39.720Z,76160
2017-05-07T15:18:48.426Z,73120
2017-05-07T15:19:57.756Z,60000
2017-05-07T15:21:06.782Z,80544
2017-05-07T15:22:15.806Z,32704
2017-05-07T15:23:24.511Z,73664
2017-05-07T15:24:33.527Z,72224
2017-05-07T15:25:43.170Z,71008
2017-05-07T15:26:53.444Z,71520
2017-05-07T15:28:03.093Z,72320
2017-05-07T15:29:11.799Z,72896
2017-05-07T15:30:21.764Z,73152
2017-05-07T15:31:32.044Z,72256
2017-05-07T15:32:42.011Z,73632
2017-05-07T15:33:51.039Z,73760
2017-05-07T15:35:00.073Z,72512
2017-05-07T15:36:08.785Z,70880
2017-05-07T15:37:17.807Z,67648
2017-05-07T15:38:27.138Z,66880
2017-05-07T15:39:36.158Z,60544
2017-05-07T15:40:44.864Z,59392
2017-05-07T15:41:54.522Z,54528
2017-05-07T15:43:03.860Z,50016
2017-05-07T15:44:12.562Z,37184
2017-05-07T15:45:21.895Z,42720
2017-05-07T15:46:31.226Z,42496